createdAt,value
2022-10-16T00:01:24.856Z,63.72
2022-10-16T00:03:52.978Z,62.64
2022-10-16T00:06:22.307Z,64.37
2022-10-16T00:08:50.479Z,64.12
2022-10-16T00:11:21.490Z,64.87
2022-10-16T00:13:51.693Z,64.07
2022-10-16T00:16:19.871Z,63.62
2022-10-16T00:18:47.812Z,63.60
2022-10-16T00:21:18.603Z,64.17
2022-10-16T00:24:07.539Z,63.92
2022-10-16T00:26:36.937Z,64.12
2022-10-16T00:29:06.208Z,62.69
2022-10-16T00:31:33.944Z,63.31
2022-10-16T00:34:01.842Z,62.23
2022-10-16T00:36:29.425Z,63.11
2022-10-16T00:41:34.136Z,63.41
2022-10-16T00:44:05.158Z,64.01
2022-10-16T00:46:43.591Z,65.25
2022-10-16T00:49:18.607Z,64.84
2022-10-16T00:51:51.032Z,63.58
2022-10-16T00:54:26.632Z,65.12
2022-10-16T00:56:56.046Z,64.17
2022-10-16T00:59:29.874Z,64.71
2022-10-16T01:01:57.577Z,64.46
2022-10-16T01:04:26.641Z,63.39
2022-10-16T01:07:25.981Z,63.99
2022-10-16T01:10:12.193Z,63.10
2022-10-16T01:12:48.759Z,66.18
2022-10-16T01:15:22.000Z,64.14
2022-10-16T01:18:03.687Z,66.95
2022-10-16T01:20:35.695Z,65.82
2022-10-16T01:23:12.401Z,65.97
2022-10-16T01:26:07.327Z,66.83
2022-10-16T01:29:01.935Z,67.29
2022-10-16T01:31:34.270Z,65.39
2022-10-16T01:34:11.368Z,65.37
2022-10-16T01:36:43.541Z,65.30
2022-10-16T01:39:12.494Z,65.18
2022-10-16T01:41:45.863Z,65.39
2022-10-16T01:44:24.132Z,65.92
2022-10-16T01:46:54.168Z,64.37
2022-10-16T01:49:23.476Z,63.99
2022-10-16T01:51:55.244Z,65.65
2022-10-16T01:54:27.212Z,66.36
2022-10-16T01:56:56.493Z,66.68
2022-10-16T01:59:27.000Z,66.88
2022-10-16T02:02:01.080Z,66.08
2022-10-16T02:04:34.299Z,66.32
2022-10-16T02:07:02.458Z,65.44
2022-10-16T02:09:32.038Z,65.06
2022-10-16T02:12:03.802Z,65.11
2022-10-16T02:14:32.023Z,64.91
2022-10-16T02:16:59.629Z,65.02
2022-10-16T02:19:27.231Z,65.23
2022-10-16T02:22:06.966Z,66.09
2022-10-16T02:24:44.722Z,65.86
2022-10-16T02:27:18.971Z,67.73
2022-10-16T02:29:59.961Z,66.54
2022-10-16T02:32:32.909Z,66.38
2022-10-16T02:35:01.673Z,64.64
2022-10-16T02:37:31.148Z,63.91
2022-10-16T02:40:00.204Z,64.18
2022-10-16T02:42:35.499Z,65.21
2022-10-16T02:45:03.651Z,64.04
2022-10-16T02:47:31.169Z,64.73
2022-10-16T02:49:58.665Z,64.60
2022-10-16T02:52:26.144Z,64.71
2022-10-16T02:54:53.689Z,64.52
2022-10-16T02:57:21.143Z,64.13
2022-10-16T02:59:48.618Z,63.39
2022-10-16T03:02:16.017Z,63.10
2022-10-16T03:04:43.526Z,63.01
2022-10-16T03:07:10.952Z,62.13
2022-10-16T03:09:38.368Z,62.46
2022-10-16T03:12:05.998Z,62.50
2022-10-16T03:14:33.409Z,62.69
2022-10-16T03:17:00.865Z,62.48
2022-10-16T03:19:28.235Z,62.26
2022-10-16T03:21:55.658Z,62.21
2022-10-16T03:24:23.055Z,62.27
2022-10-16T03:26:50.536Z,62.43
2022-10-16T03:29:18.008Z,61.89
2022-10-16T03:31:45.522Z,62.15
2022-10-16T03:34:12.868Z,62.38
2022-10-16T03:36:43.162Z,63.57
2022-10-16T03:39:10.739Z,62.03
2022-10-16T03:41:38.113Z,61.99
2022-10-16T03:44:05.579Z,61.92
2022-10-16T03:46:33.138Z,62.09
2022-10-16T03:49:00.446Z,61.90
2022-10-16T03:51:27.855Z,61.81
2022-10-16T03:53:55.327Z,61.71
2022-10-16T03:56:22.768Z,61.38
2022-10-16T03:58:50.159Z,60.91
2022-10-16T04:01:17.668Z,61.14
2022-10-16T04:03:45.273Z,60.84
2022-10-16T04:06:12.653Z,60.70
2022-10-16T04:08:40.472Z,60.14
2022-10-16T04:11:07.844Z,59.86
2022-10-16T04:13:35.262Z,59.48
2022-10-16T04:16:02.686Z,59.35
2022-10-16T04:18:30.352Z,58.96
2022-10-16T04:20:57.759Z,59.00
2022-10-16T04:23:25.327Z,58.66
2022-10-16T04:25:52.753Z,58.95
2022-10-16T04:28:20.268Z,59.02
2022-10-16T04:30:47.719Z,58.88
2022-10-16T04:33:15.208Z,58.90
2022-10-16T04:35:42.720Z,58.58
2022-10-16T04:38:10.103Z,58.29
2022-10-16T04:40:37.884Z,58.78
2022-10-16T04:43:06.877Z,58.53
2022-10-16T04:45:34.335Z,58.22
2022-10-16T04:48:01.838Z,57.56
2022-10-16T04:50:29.337Z,57.01
2022-10-16T04:53:08.340Z,56.66
2022-10-16T04:55:36.003Z,56.32
2022-10-16T04:58:03.406Z,55.63
2022-10-16T05:00:30.798Z,55.93
2022-10-16T05:03:00.814Z,56.22
2022-10-16T05:05:29.084Z,55.92
2022-10-16T05:07:56.591Z,55.30
2022-10-16T05:10:23.911Z,54.39
2022-10-16T05:12:52.581Z,55.20
2022-10-16T05:15:19.964Z,55.39
2022-10-16T05:17:47.399Z,55.78
2022-10-16T05:20:14.996Z,55.91
2022-10-16T05:22:42.348Z,55.79
2022-10-16T05:25:09.796Z,56.21
2022-10-16T05:27:37.180Z,56.88
2022-10-16T05:30:07.426Z,55.71
2022-10-16T05:32:37.251Z,55.03
2022-10-16T05:35:07.488Z,53.82
2022-10-16T05:37:37.516Z,52.16
2022-10-16T05:40:06.187Z,51.35
2022-10-16T05:42:33.539Z,50.95
2022-10-16T05:45:01.038Z,50.58
2022-10-16T05:47:28.981Z,50.55
2022-10-16T05:49:56.721Z,49.69
2022-10-16T05:52:24.079Z,49.16
2022-10-16T05:54:51.566Z,49.31
2022-10-16T05:57:19.170Z,49.61
2022-10-16T05:59:47.053Z,49.49
2022-10-16T06:02:15.183Z,50.05
2022-10-16T06:04:42.654Z,49.86
2022-10-16T06:07:10.016Z,49.63
2022-10-16T06:09:37.426Z,50.14
2022-10-16T06:12:06.321Z,51.83
2022-10-16T06:14:33.917Z,51.55
2022-10-16T06:17:01.262Z,50.66
2022-10-16T06:19:28.750Z,50.86
2022-10-16T06:21:56.149Z,50.27
2022-10-16T06:24:23.663Z,50.14
2022-10-16T06:26:51.070Z,49.92
2022-10-16T06:29:18.506Z,50.14
2022-10-16T06:31:45.948Z,50.90
2022-10-16T06:34:13.383Z,50.71
2022-10-16T06:36:41.327Z,51.17
2022-10-16T06:39:08.944Z,51.06
2022-10-16T06:41:36.577Z,51.53
2022-10-16T06:44:16.452Z,51.22
2022-10-16T06:46:43.915Z,51.52
2022-10-16T06:49:11.230Z,51.82
2022-10-16T06:51:43.381Z,51.32
2022-10-16T06:54:11.346Z,50.83
2022-10-16T06:56:39.152Z,51.36
2022-10-16T06:59:06.509Z,51.38
2022-10-16T07:01:34.483Z,50.97
2022-10-16T07:04:03.451Z,51.31
2022-10-16T07:06:33.697Z,51.43
2022-10-16T07:09:04.804Z,51.04
2022-10-16T07:11:32.174Z,50.54
2022-10-16T07:13:59.779Z,50.51
2022-10-16T07:16:29.714Z,49.51
2022-10-16T07:19:00.640Z,48.57
2022-10-16T07:21:38.167Z,48.78
2022-10-16T07:24:08.564Z,48.10
2022-10-16T07:26:37.889Z,48.28
2022-10-16T07:29:05.322Z,48.20
2022-10-16T07:31:32.927Z,47.77
2022-10-16T07:34:01.607Z,47.98
2022-10-16T07:36:29.158Z,47.40
2022-10-16T07:38:58.998Z,47.63
2022-10-16T07:41:28.441Z,48.09
2022-10-16T07:43:57.724Z,48.11
2022-10-16T07:46:25.226Z,47.91
2022-10-16T07:48:52.920Z,48.13
2022-10-16T07:51:23.072Z,47.89
2022-10-16T07:53:51.053Z,47.83
2022-10-16T07:56:19.684Z,48.11
2022-10-16T07:58:47.758Z,47.81
2022-10-16T08:01:18.086Z,48.56
2022-10-16T08:03:47.760Z,48.45
2022-10-16T08:06:15.938Z,48.88
2022-10-16T08:08:43.526Z,48.41
2022-10-16T08:11:11.101Z,48.19
2022-10-16T08:13:38.985Z,48.04
2022-10-16T08:16:09.020Z,47.75
2022-10-16T08:18:39.460Z,48.46
2022-10-16T08:21:07.943Z,47.49
2022-10-16T08:23:35.839Z,47.59
2022-10-16T08:26:06.791Z,47.84
2022-10-16T08:28:34.671Z,47.79
2022-10-16T08:33:49.658Z,47.91
2022-10-16T08:36:17.859Z,48.42
2022-10-16T08:38:45.340Z,48.30
2022-10-16T08:41:49.730Z,49.51
2022-10-16T08:44:50.685Z,50.60
2022-10-16T08:47:26.542Z,51.01
2022-10-16T08:50:01.966Z,51.01
2022-10-16T08:52:34.158Z,50.68
2022-10-16T08:55:01.774Z,50.19
2022-10-16T08:57:32.708Z,50.67
2022-10-16T09:00:14.539Z,51.29
2022-10-16T09:02:54.951Z,52.28
2022-10-16T09:05:50.202Z,52.40
2022-10-16T09:08:38.591Z,51.96
2022-10-16T09:11:15.552Z,50.63
2022-10-16T09:14:02.057Z,51.37
2022-10-16T09:16:38.210Z,50.09
2022-10-16T09:19:30.321Z,50.91
2022-10-16T09:22:00.774Z,49.40
2022-10-16T09:24:29.373Z,48.98
2022-10-16T09:26:57.161Z,48.85
2022-10-16T09:29:26.409Z,48.41
2022-10-16T09:31:56.138Z,48.22
2022-10-16T09:34:28.648Z,49.48
2022-10-16T09:36:58.727Z,48.75
2022-10-16T09:39:26.457Z,48.33
2022-10-16T09:41:54.409Z,48.54
2022-10-16T09:44:29.611Z,49.86
2022-10-16T09:47:06.070Z,50.12
2022-10-16T09:49:33.590Z,49.41
2022-10-16T09:52:14.707Z,51.11
2022-10-16T09:54:56.740Z,50.68
2022-10-16T09:57:26.757Z,49.91
2022-10-16T09:59:59.475Z,51.12
2022-10-16T10:02:31.568Z,50.25
2022-10-16T10:04:59.028Z,49.80
2022-10-16T10:07:29.393Z,49.86
2022-10-16T10:09:58.617Z,50.34
2022-10-16T10:12:29.182Z,49.96
2022-10-16T10:14:59.259Z,49.97
2022-10-16T10:17:28.872Z,49.59
2022-10-16T10:20:24.189Z,50.12
2022-10-16T10:22:53.483Z,48.92
2022-10-16T10:25:40.432Z,50.80
2022-10-16T10:28:28.511Z,51.05
2022-10-16T10:31:04.893Z,49.25
2022-10-16T10:33:39.324Z,48.87
2022-10-16T10:36:15.699Z,50.11
2022-10-16T10:38:58.311Z,50.58
2022-10-16T10:41:32.039Z,49.34
2022-10-16T10:44:24.472Z,48.77
2022-10-16T10:46:55.795Z,48.53
2022-10-16T10:49:50.146Z,50.67
2022-10-16T10:52:45.554Z,49.79
2022-10-16T10:55:51.300Z,49.25
2022-10-16T10:58:38.103Z,50.42
2022-10-16T11:01:34.430Z,50.61
2022-10-16T11:04:31.022Z,48.22
2022-10-16T11:07:18.565Z,49.69
2022-10-16T11:09:50.931Z,48.85
2022-10-16T11:12:27.420Z,49.21
2022-10-16T11:15:12.801Z,48.22
2022-10-16T11:17:43.706Z,48.19
2022-10-16T11:21:02.301Z,49.01
2022-10-16T11:23:47.986Z,50.00
2022-10-16T11:26:23.574Z,49.18
2022-10-16T11:28:53.925Z,48.96
2022-10-16T11:31:41.539Z,48.68
2022-10-16T11:34:49.230Z,49.24
2022-10-16T11:37:24.676Z,48.92
2022-10-16T11:39:55.739Z,48.47
2022-10-16T11:42:38.381Z,49.27
2022-10-16T11:45:32.334Z,49.39
2022-10-16T11:48:16.118Z,49.37
2022-10-16T11:50:47.950Z,49.45
2022-10-16T11:53:25.727Z,49.32
2022-10-16T11:55:53.332Z,47.95
2022-10-16T11:58:30.540Z,49.70
2022-10-16T12:01:05.030Z,49.28
2022-10-16T12:03:41.851Z,49.93
2022-10-16T12:06:21.679Z,49.55
2022-10-16T12:08:49.667Z,48.93
2022-10-16T12:11:28.973Z,50.03
2022-10-16T12:14:22.210Z,48.81
2022-10-16T12:16:54.112Z,48.93
2022-10-16T12:19:23.099Z,48.72
2022-10-16T12:21:52.566Z,49.01
2022-10-16T12:24:26.616Z,49.84
2022-10-16T12:26:54.273Z,49.03
2022-10-16T12:29:41.008Z,49.00
2022-10-16T12:32:45.675Z,49.99
2022-10-16T12:35:23.814Z,50.80
2022-10-16T12:37:53.194Z,49.46
2022-10-16T12:40:23.560Z,50.01
2022-10-16T12:42:50.947Z,49.44
2022-10-16T12:45:33.356Z,50.03
2022-10-16T12:48:03.424Z,49.18
2022-10-16T12:50:37.760Z,49.47
2022-10-16T12:53:20.281Z,49.55
2022-10-16T12:56:10.147Z,49.32
2022-10-16T12:58:56.163Z,48.01
2022-10-16T13:01:29.702Z,48.02
2022-10-16T13:04:20.973Z,47.44
2022-10-16T13:06:48.348Z,46.69
2022-10-16T13:09:41.640Z,48.16
2022-10-16T13:12:24.259Z,47.37
2022-10-16T13:15:19.236Z,46.70
2022-10-16T13:17:58.569Z,46.57
2022-10-16T13:20:37.495Z,47.94
2022-10-16T13:23:26.271Z,46.25
2022-10-16T13:26:55.329Z,47.38
2022-10-16T13:29:23.710Z,46.08
2022-10-16T13:31:51.492Z,46.06
2022-10-16T13:34:23.564Z,47.63
2022-10-16T13:36:53.972Z,47.65
2022-10-16T13:39:31.099Z,48.88
2022-10-16T13:42:04.882Z,48.29
2022-10-16T13:44:47.318Z,48.74
2022-10-16T13:47:22.056Z,48.61
2022-10-16T13:50:02.003Z,49.08
2022-10-16T13:52:31.210Z,47.35
2022-10-16T13:55:01.767Z,48.13
2022-10-16T13:57:31.357Z,47.96
2022-10-16T14:00:00.532Z,48.45
2022-10-16T14:02:40.653Z,50.93
2022-10-16T14:05:11.887Z,50.39
2022-10-16T14:07:39.924Z,49.31
2022-10-16T14:10:21.674Z,50.35
2022-10-16T14:12:57.424Z,52.31
2022-10-16T14:15:24.998Z,50.36
2022-10-16T14:17:54.431Z,50.85
2022-10-16T14:20:27.754Z,52.12
2022-10-16T14:23:04.605Z,53.17
2022-10-16T14:25:34.142Z,52.41
2022-10-16T14:28:23.866Z,54.18
2022-10-16T14:30:54.477Z,51.87
2022-10-16T14:33:31.130Z,54.34
2022-10-16T14:36:04.427Z,53.31
2022-10-16T14:38:32.854Z,52.78
2022-10-16T14:41:01.435Z,53.02
2022-10-16T14:43:40.554Z,53.81
2022-10-16T14:46:15.328Z,55.19
2022-10-16T14:48:50.124Z,54.79
2022-10-16T14:51:21.759Z,54.09
2022-10-16T14:53:50.002Z,52.10
2022-10-16T14:56:21.816Z,53.71
2022-10-16T14:58:51.223Z,52.73
2022-10-16T15:01:19.328Z,52.77
2022-10-16T15:03:47.014Z,52.23
2022-10-16T15:06:16.331Z,52.29
2022-10-16T15:08:43.965Z,52.02
2022-10-16T15:11:19.815Z,53.26
2022-10-16T15:13:47.790Z,51.70
2022-10-16T15:16:17.590Z,52.27
2022-10-16T15:18:46.670Z,52.16
2022-10-16T15:21:34.303Z,53.33
2022-10-16T15:24:04.764Z,51.30
2022-10-16T15:26:37.302Z,51.16
2022-10-16T15:29:05.977Z,51.10
2022-10-16T15:31:35.449Z,51.86
2022-10-16T15:34:05.588Z,51.52
2022-10-16T15:36:38.275Z,53.05
2022-10-16T15:39:13.754Z,52.37
2022-10-16T15:41:42.714Z,52.47
2022-10-16T15:44:10.456Z,53.02
2022-10-16T15:46:38.573Z,52.51
2022-10-16T15:49:06.119Z,52.56
2022-10-16T15:51:34.380Z,52.22
2022-10-16T15:54:03.183Z,52.67
2022-10-16T15:56:31.834Z,52.71
2022-10-16T15:59:00.146Z,53.11
2022-10-16T16:01:28.411Z,53.43
2022-10-16T16:03:56.799Z,53.18
2022-10-16T16:06:25.143Z,53.53
2022-10-16T16:08:53.011Z,53.79
2022-10-16T16:11:24.898Z,54.66
2022-10-16T16:13:52.270Z,53.88
2022-10-16T16:16:21.352Z,54.19
2022-10-16T16:18:50.575Z,54.50
2022-10-16T16:21:18.574Z,54.22
2022-10-16T16:23:45.987Z,54.58
2022-10-16T16:26:28.769Z,54.57
2022-10-16T16:28:58.023Z,54.28
2022-10-16T16:31:27.961Z,54.98
2022-10-16T16:33:56.136Z,54.19
2022-10-16T16:38:57.667Z,54.17
2022-10-16T16:41:27.673Z,54.48
2022-10-16T16:43:57.204Z,54.77
2022-10-16T16:46:24.680Z,53.73
2022-10-16T16:48:54.131Z,53.44
2022-10-16T16:51:21.636Z,53.27
2022-10-16T16:53:51.776Z,53.39
2022-10-16T16:56:21.234Z,53.11
2022-10-16T16:58:51.152Z,53.09
2022-10-16T17:01:21.010Z,52.56
2022-10-16T17:03:51.627Z,53.02
2022-10-16T17:06:25.607Z,52.71
2022-10-16T17:08:53.009Z,53.55
2022-10-16T17:11:23.804Z,52.58
2022-10-16T17:13:56.827Z,53.04
2022-10-16T17:16:29.619Z,53.75
2022-10-16T17:19:01.361Z,53.50
2022-10-16T17:21:30.804Z,52.32
2022-10-16T17:24:01.576Z,52.49
2022-10-16T17:26:29.419Z,53.30
2022-10-16T17:28:59.055Z,54.14
2022-10-16T17:31:34.414Z,54.79
2022-10-16T17:34:03.998Z,54.25
2022-10-16T17:36:34.305Z,54.58
2022-10-16T17:39:04.947Z,54.64
2022-10-16T17:41:33.952Z,54.49
2022-10-16T17:44:01.665Z,53.89
2022-10-16T17:46:30.204Z,54.07
2022-10-16T17:48:57.782Z,53.58
2022-10-16T17:51:30.415Z,54.41
2022-10-16T17:54:01.340Z,54.82
2022-10-16T17:56:30.756Z,54.17
2022-10-16T17:59:00.696Z,53.92
2022-10-16T18:01:32.075Z,54.10
2022-10-16T18:04:03.444Z,54.24
2022-10-16T18:06:33.776Z,54.66
2022-10-16T18:09:02.286Z,54.43
2022-10-16T18:11:30.183Z,54.05
2022-10-16T18:13:59.444Z,53.85
2022-10-16T18:16:28.897Z,54.55
2022-10-16T18:19:00.108Z,54.19
2022-10-16T18:21:28.890Z,54.61
2022-10-16T18:23:58.460Z,54.52
2022-10-16T18:26:26.690Z,54.60
2022-10-16T18:28:56.214Z,54.39
2022-10-16T18:31:26.558Z,53.47
2022-10-16T18:33:56.415Z,53.78
2022-10-16T18:36:29.862Z,54.40
2022-10-16T18:38:58.336Z,53.73
2022-10-16T18:41:27.915Z,53.90
2022-10-16T18:43:56.595Z,53.93
2022-10-16T18:46:25.914Z,53.30
2022-10-16T18:48:56.694Z,54.14
2022-10-16T18:51:29.743Z,54.59
2022-10-16T18:54:03.175Z,53.83
2022-10-16T18:56:32.239Z,53.67
2022-10-16T18:59:02.659Z,53.68
2022-10-16T19:01:31.891Z,53.44
2022-10-16T19:04:02.191Z,53.31
2022-10-16T19:06:30.473Z,53.16
2022-10-16T19:08:57.969Z,52.55
2022-10-16T19:11:26.918Z,53.69
2022-10-16T19:13:57.435Z,53.14
2022-10-16T19:16:29.227Z,53.70
2022-10-16T19:19:00.044Z,53.70
2022-10-16T19:21:29.762Z,52.93
2022-10-16T19:23:59.450Z,53.16
2022-10-16T19:26:28.402Z,52.57
2022-10-16T19:28:58.644Z,52.76
2022-10-16T19:31:27.729Z,52.76
2022-10-16T19:33:57.886Z,52.81
2022-10-16T19:36:33.403Z,53.28
2022-10-16T19:39:06.095Z,52.91
2022-10-16T19:41:34.279Z,52.47
2022-10-16T19:44:07.803Z,53.30
2022-10-16T19:46:37.672Z,53.10
2022-10-16T19:49:11.128Z,52.67
2022-10-16T19:51:39.290Z,52.20
2022-10-16T19:54:09.307Z,52.55
2022-10-16T19:56:37.718Z,52.74
2022-10-16T19:59:07.771Z,52.93
2022-10-16T20:01:35.558Z,52.54
2022-10-16T20:04:03.485Z,52.54
2022-10-16T20:06:31.106Z,52.39
2022-10-16T20:08:58.788Z,52.11
2022-10-16T20:11:29.490Z,52.85
2022-10-16T20:13:57.850Z,52.48
2022-10-16T20:16:26.723Z,52.30
2022-10-16T20:18:54.271Z,53.12
2022-10-16T20:21:25.005Z,53.68
2022-10-16T20:23:53.006Z,52.78
2022-10-16T20:26:22.544Z,52.72
2022-10-16T20:28:50.507Z,52.56
2022-10-16T20:31:22.915Z,53.37
2022-10-16T20:33:51.760Z,53.16
2022-10-16T20:36:21.195Z,53.34
2022-10-16T20:38:48.697Z,52.72
2022-10-16T20:41:17.587Z,53.21
2022-10-16T20:43:48.383Z,53.01
2022-10-16T20:46:19.411Z,53.79
2022-10-16T20:48:47.360Z,52.97
2022-10-16T20:51:21.340Z,53.86
2022-10-16T20:53:53.254Z,54.15
2022-10-16T20:56:20.871Z,53.23
2022-10-16T20:58:48.483Z,53.41
2022-10-16T21:01:18.246Z,53.58
2022-10-16T21:03:51.459Z,53.86
2022-10-16T21:06:18.986Z,53.40
2022-10-16T21:08:46.831Z,53.53
2022-10-16T21:11:17.587Z,53.83
2022-10-16T21:13:45.281Z,53.80
2022-10-16T21:16:15.301Z,54.45
2022-10-16T21:18:44.717Z,54.59
2022-10-16T21:21:21.472Z,54.90
2022-10-16T21:23:50.618Z,54.12
2022-10-16T21:26:21.259Z,54.40
2022-10-16T21:28:48.705Z,53.85
2022-10-16T21:31:19.336Z,54.60
2022-10-16T21:33:47.963Z,54.29
2022-10-16T21:36:21.519Z,55.23
2022-10-16T21:38:49.388Z,53.58
2022-10-16T21:41:26.559Z,55.26
2022-10-16T21:43:55.584Z,54.40
2022-10-16T21:46:25.394Z,55.04
2022-10-16T21:48:56.987Z,55.74
2022-10-16T21:51:29.802Z,56.85
2022-10-16T21:53:57.301Z,55.72
2022-10-16T21:56:24.722Z,56.53
2022-10-16T21:58:52.584Z,57.18
2022-10-16T22:01:22.717Z,56.42
2022-10-16T22:03:50.592Z,55.10
2022-10-16T22:08:51.779Z,55.95
2022-10-16T22:11:23.168Z,55.72
2022-10-16T22:13:54.253Z,55.12
2022-10-16T22:16:27.324Z,56.23
2022-10-16T22:18:56.618Z,55.33
2022-10-16T22:21:24.875Z,55.27
2022-10-16T22:23:52.406Z,54.64
2022-10-16T22:26:21.568Z,56.18
2022-10-16T22:28:48.981Z,55.69
2022-10-16T22:31:16.617Z,55.82
2022-10-16T22:33:45.384Z,56.62
2022-10-16T22:36:15.139Z,57.08
2022-10-16T22:38:42.739Z,56.27
2022-10-16T22:41:12.310Z,56.52
2022-10-16T22:43:43.377Z,57.03
2022-10-16T22:46:14.252Z,56.73
2022-10-16T22:48:42.302Z,56.61
2022-10-16T22:51:14.113Z,56.74
2022-10-16T22:53:43.757Z,56.84
2022-10-16T22:56:11.885Z,57.02
2022-10-16T22:58:39.498Z,56.56
2022-10-16T23:01:38.809Z,58.23
2022-10-16T23:04:07.569Z,56.82
2022-10-16T23:06:35.293Z,57.02
2022-10-16T23:09:03.003Z,57.25
2022-10-16T23:11:31.174Z,56.35
2022-10-16T23:13:58.709Z,56.82
2022-10-16T23:16:26.573Z,56.98
2022-10-16T23:18:54.102Z,56.60
2022-10-16T23:21:24.819Z,57.45
2022-10-16T23:23:53.752Z,57.74
2022-10-16T23:26:27.678Z,58.39
2022-10-16T23:28:59.385Z,57.91
2022-10-16T23:31:28.279Z,56.99
2022-10-16T23:33:59.710Z,58.04
2022-10-16T23:36:27.147Z,57.53
2022-10-16T23:38:55.705Z,57.94
2022-10-16T23:41:23.279Z,57.29
2022-10-16T23:43:51.684Z,57.30
2022-10-16T23:46:19.075Z,57.80
2022-10-16T23:48:46.703Z,57.68
2022-10-16T23:51:14.270Z,57.87
2022-10-16T23:53:41.761Z,58.20
2022-10-16T23:56:09.640Z,57.58
2022-10-16T23:58:37.121Z,57.72
